Time;durP1;ratioP1;P1;durP2;ratioP2;P2;SDS_P1;SDS_P2;PMS_P1;PMS_P2;Temp;Humidity;BMP_temperature;BMP_pressure;BME280_temperature;BME280_humidity;BME280_pressure;Samples;Min_cycle;Max_cycle;Signal;HPM_P1;HPM_P2
2023/10/06 00:02:14;;;;;;;;;;;14.10;99.90;;;;;;4994242;28;19924;-96
2023/10/06 00:04:41;;;;;;;;;;;14.10;99.90;;;;;;4990264;28;20351;-95
2023/10/06 00:07:09;;;;;;;;;;;14.10;99.90;;;;;;4993938;28;20008;-96
2023/10/06 00:09:43;;;;;;;;;;;14.10;99.90;;;;;;4993188;28;19925;-95
2023/10/06 00:12:13;;;;;;;;;;;14.10;99.90;;;;;;4976767;28;20383;-96
2023/10/06 00:14:39;;;;;;;;;;;14.10;99.90;;;;;;4992929;28;20044;-95
2023/10/06 00:17:15;;;;;;;;;;;14.10;99.90;;;;;;4993969;28;19956;-95
2023/10/06 00:19:42;;;;;;;;;;;14.10;99.90;;;;;;4992663;28;19917;-96
2023/10/06 00:24:58;;;;;;;;;;;14.10;99.90;;;;;;5009333;28;19917;-95
2023/10/06 00:27:29;;;;;;;;;;;14.10;99.90;;;;;;4973785;28;19925;-95
2023/10/06 00:29:55;;;;;;;;;;;14.10;99.90;;;;;;4992872;28;19925;-95
2023/10/06 00:32:21;;;;;;;;;;;14.10;99.90;;;;;;4993603;28;20349;-94
2023/10/06 00:34:52;;;;;;;;;;;14.10;99.90;;;;;;4975938;28;19961;-95
2023/10/06 00:37:22;;;;;;;;;;;13.70;99.90;;;;;;4996374;28;19964;-96
2023/10/06 00:39:50;;;;;;;;;;;14.20;99.90;;;;;;4987114;28;19917;-96
2023/10/06 00:42:18;;;;;;;;;;;14.10;99.90;;;;;;4996652;28;19923;-96
2023/10/06 00:44:47;;;;;;;;;;;14.00;99.90;;;;;;4980250;28;19924;-96
2023/10/06 00:47:13;;;;;;;;;;;14.00;99.90;;;;;;4993698;28;19917;-96
2023/10/06 00:49:39;;;;;;;;;;;14.00;99.90;;;;;;4984219;28;19952;-95
2023/10/06 00:52:08;;;;;;;;;;;14.10;99.90;;;;;;4997868;28;20337;-96
2023/10/06 00:54:34;;;;;;;;;;;14.00;99.90;;;;;;4996688;28;19927;-96
2023/10/06 00:57:08;;;;;;;;;;;14.00;99.90;;;;;;4995879;28;19932;-95
2023/10/06 00:59:37;;;;;;;;;;;14.10;99.90;;;;;;4999582;28;19925;-96
2023/10/06 01:02:09;;;;;;;;;;;14.10;99.90;;;;;;4995430;28;19924;-96
2023/10/06 01:04:38;;;;;;;;;;;14.10;99.90;;;;;;4979344;28;19921;-96
2023/10/06 01:07:04;;;;;;;;;;;14.20;99.90;;;;;;4996841;28;19927;-95
2023/10/06 01:09:35;;;;;;;;;;;14.10;99.90;;;;;;5003083;28;20376;-95
2023/10/06 01:12:10;;;;;;;;;;;14.20;99.90;;;;;;4996748;28;19917;-95
2023/10/06 01:14:40;;;;;;;;;;;14.20;99.90;;;;;;4996170;28;19979;-96
2023/10/06 01:17:18;;;;;;;;;;;14.20;99.90;;;;;;4993659;28;20332;-96
2023/10/06 01:19:47;;;;;;;;;;;14.20;99.90;;;;;;4973059;28;19932;-96
2023/10/06 01:25:21;;;;;;;;;;;14.20;99.90;;;;;;4997407;28;19917;-96
2023/10/06 01:27:50;;;;;;;;;;;14.20;99.90;;;;;;4995344;28;19924;-96
2023/10/06 01:30:19;;;;;;;;;;;14.30;99.90;;;;;;4998869;28;19921;-96
2023/10/06 01:32:45;;;;;;;;;;;14.20;99.90;;;;;;5002840;28;20156;-96
2023/10/06 01:35:34;;;;;;;;;;;14.20;99.90;;;;;;5006600;28;20015;-95
2023/10/06 01:38:00;;;;;;;;;;;14.20;99.90;;;;;;4986241;28;19921;-96
2023/10/06 01:42:51;;;;;;;;;;;14.20;99.90;;;;;;5012868;28;20016;-96
2023/10/06 01:45:21;;;;;;;;;;;14.20;99.90;;;;;;4979794;28;19924;-96
2023/10/06 01:48:22;;;;;;;;;;;14.20;99.90;;;;;;4996154;28;19917;-95
2023/10/06 01:50:36;;;;;;;;;;;14.20;99.90;;;;;;5009003;28;19929;-96
2023/10/06 01:53:06;;;;;;;;;;;14.20;99.90;;;;;;4996166;28;19917;-96
2023/10/06 01:55:54;;;;;;;;;;;14.10;99.90;;;;;;4995964;28;19917;-96
2023/10/06 01:58:21;;;;;;;;;;;13.50;99.90;;;;;;4999978;28;19917;-96
2023/10/06 02:00:48;;;;;;;;;;;14.20;99.90;;;;;;4991058;28;19972;-96
2023/10/06 02:03:21;;;;;;;;;;;14.20;99.90;;;;;;4992377;28;19975;-96
2023/10/06 02:05:47;;;;;;;;;;;14.10;99.90;;;;;;5010621;28;19917;-95
2023/10/06 02:08:22;;;;;;;;;;;14.10;99.90;;;;;;4976781;28;20000;-96
2023/10/06 02:10:47;;;;;;;;;;;14.20;99.90;;;;;;4987675;28;19945;-94
2023/10/06 02:13:18;;;;;;;;;;;14.10;99.90;;;;;;4988934;28;20000;-96
2023/10/06 02:15:44;;;;;;;;;;;14.20;99.90;;;;;;4995598;28;19929;-96
2023/10/06 02:18:13;;;;;;;;;;;14.20;99.90;;;;;;4997923;28;20383;-96
2023/10/06 02:20:44;;;;;;;;;;;14.20;99.90;;;;;;5001212;28;20382;-96
2023/10/06 02:23:13;;;;;;;;;;;14.20;99.90;;;;;;4993906;28;19925;-96
2023/10/06 02:25:39;;;;;;;;;;;13.90;99.90;;;;;;4995263;28;19964;-95
2023/10/06 02:28:05;;;;;;;;;;;14.20;99.90;;;;;;4998139;28;19918;-95
2023/10/06 02:30:44;;;;;;;;;;;13.80;99.90;;;;;;4994730;28;19922;-95
2023/10/06 02:33:11;;;;;;;;;;;14.20;99.90;;;;;;4989141;28;19921;-96
2023/10/06 02:35:44;;;;;;;;;;;14.20;99.90;;;;;;4977475;28;19921;-95
2023/10/06 02:38:13;;;;;;;;;;;14.20;99.90;;;;;;4972563;28;19922;-96
2023/10/06 02:40:45;;;;;;;;;;;13.80;99.90;;;;;;4982499;28;20339;-96
2023/10/06 02:43:17;;;;;;;;;;;14.30;99.90;;;;;;4995147;28;19951;-95
2023/10/06 02:45:43;;;;;;;;;;;14.30;99.90;;;;;;4998644;28;19926;-94
2023/10/06 02:48:17;;;;;;;;;;;14.30;99.90;;;;;;4995091;28;20427;-95
2023/10/06 02:50:45;;;;;;;;;;;14.30;99.90;;;;;;4994843;28;19983;-95
2023/10/06 02:53:23;;;;;;;;;;;14.20;99.90;;;;;;4994729;28;19971;-95
2023/10/06 02:55:55;;;;;;;;;;;14.30;99.90;;;;;;4994933;28;19968;-94
2023/10/06 02:58:30;;;;;;;;;;;13.50;99.90;;;;;;4994023;28;19918;-96
2023/10/06 03:00:56;;;;;;;;;;;14.20;99.90;;;;;;4993138;28;20008;-95
2023/10/06 03:03:27;;;;;;;;;;;14.20;99.90;;;;;;4993993;28;20004;-94
2023/10/06 03:05:53;;;;;;;;;;;14.20;99.90;;;;;;4999185;28;20430;-94
2023/10/06 03:08:23;;;;;;;;;;;14.20;99.90;;;;;;4993917;28;19921;-95
2023/10/06 03:10:49;;;;;;;;;;;14.30;99.90;;;;;;5003534;28;19980;-94
2023/10/06 03:13:55;;;;;;;;;;;14.30;99.90;;;;;;4999225;28;19956;-95
2023/10/06 03:16:11;;;;;;;;;;;14.30;99.90;;;;;;5008353;28;19917;-94
2023/10/06 03:18:37;;;;;;;;;;;14.20;99.90;;;;;;4995509;28;19922;-96
2023/10/06 03:23:38;;;;;;;;;;;14.70;99.90;;;;;;5020215;28;20539;-96
2023/10/06 03:26:11;;;;;;;;;;;14.20;99.90;;;;;;4994282;28;19921;-94
2023/10/06 03:28:37;;;;;;;;;;;14.30;99.90;;;;;;4995122;28;19925;-95
2023/10/06 03:33:49;;;;;;;;;;;14.20;99.90;;;;;;4996292;28;19932;-95
2023/10/06 03:36:16;;;;;;;;;;;14.30;99.90;;;;;;4990183;28;19921;-96
2023/10/06 03:38:52;;;;;;;;;;;13.60;99.90;;;;;;4993120;28;19941;-95
2023/10/06 03:41:25;;;;;;;;;;;14.20;99.90;;;;;;4988776;28;20064;-96
2023/10/06 03:43:51;;;;;;;;;;;14.20;99.90;;;;;;4994800;28;19924;-94
2023/10/06 03:46:18;;;;;;;;;;;14.20;99.90;;;;;;4990773;28;19941;-96
2023/10/06 03:48:51;;;;;;;;;;;14.20;99.90;;;;;;4980064;28;20090;-96
2023/10/06 03:51:17;;;;;;;;;;;14.20;99.90;;;;;;5000050;28;20480;-95
2023/10/06 03:53:48;;;;;;;;;;;14.20;99.90;;;;;;4991461;28;20361;-95
2023/10/06 03:56:17;;;;;;;;;;;14.20;99.90;;;;;;4983114;28;19921;-95
2023/10/06 03:58:44;;;;;;;;;;;14.20;99.90;;;;;;4993037;28;20375;-95
2023/10/06 04:01:11;;;;;;;;;;;14.20;99.90;;;;;;4992910;28;20056;-95
2023/10/06 04:03:39;;;;;;;;;;;14.20;99.90;;;;;;4992306;28;19921;-96
2023/10/06 04:06:05;;;;;;;;;;;14.20;99.90;;;;;;4997372;28;19918;-95
2023/10/06 04:08:31;;;;;;;;;;;14.20;99.90;;;;;;5002765;28;20292;-95
2023/10/06 04:10:58;;;;;;;;;;;13.50;99.90;;;;;;4974125;28;19921;-96
2023/10/06 04:13:27;;;;;;;;;;;14.20;99.90;;;;;;4998266;28;19948;-95
2023/10/06 04:15:53;;;;;;;;;;;13.80;99.90;;;;;;4993276;28;19917;-95
2023/10/06 04:18:25;;;;;;;;;;;14.10;99.90;;;;;;4997017;28;19921;-95
2023/10/06 04:20:51;;;;;;;;;;;13.40;99.90;;;;;;4994321;28;19995;-95
2023/10/06 04:23:18;;;;;;;;;;;14.20;99.90;;;;;;4993106;28;20373;-95
2023/10/06 04:25:46;;;;;;;;;;;14.30;99.90;;;;;;4998187;28;20423;-96
2023/10/06 04:28:19;;;;;;;;;;;14.20;99.90;;;;;;4976688;28;19932;-96
2023/10/06 04:30:45;;;;;;;;;;;14.20;99.90;;;;;;4976042;28;19925;-94
2023/10/06 04:33:12;;;;;;;;;;;14.20;99.90;;;;;;4993071;28;19921;-94
2023/10/06 04:35:40;;;;;;;;;;;14.20;99.90;;;;;;4995008;28;20087;-95
2023/10/06 04:38:09;;;;;;;;;;;14.20;99.90;;;;;;4996937;28;19943;-96
2023/10/06 04:40:40;;;;;;;;;;;14.20;99.90;;;;;;4975213;28;19946;-95
2023/10/06 04:43:06;;;;;;;;;;;14.20;99.90;;;;;;4997348;28;19996;-96
2023/10/06 04:45:38;;;;;;;;;;;14.20;99.90;;;;;;4993205;28;19917;-95
2023/10/06 04:48:07;;;;;;;;;;;14.20;99.90;;;;;;4992714;28;19996;-94
2023/10/06 04:50:34;;;;;;;;;;;14.20;99.90;;;;;;4991645;28;19921;-95
2023/10/06 04:53:00;;;;;;;;;;;14.10;99.90;;;;;;4998783;28;19925;-94
2023/10/06 04:55:26;;;;;;;;;;;14.20;99.90;;;;;;4996012;28;20000;-96
2023/10/06 04:57:52;;;;;;;;;;;14.10;99.90;;;;;;4999808;28;19917;-94
2023/10/06 05:00:21;;;;;;;;;;;14.20;99.90;;;;;;4995321;28;19924;-94
2023/10/06 05:02:47;;;;;;;;;;;14.20;99.90;;;;;;5000920;28;19921;-95
2023/10/06 05:05:14;;;;;;;;;;;14.20;99.90;;;;;;4994508;28;19956;-95
2023/10/06 05:07:39;;;;;;;;;;;14.10;99.90;;;;;;4994075;28;20016;-95
2023/10/06 05:10:08;;;;;;;;;;;14.20;99.90;;;;;;4994572;28;21322;-95
2023/10/06 05:12:34;;;;;;;;;;;14.20;99.90;;;;;;4977918;28;20331;-95
2023/10/06 05:15:01;;;;;;;;;;;14.20;99.90;;;;;;4985314;28;20388;-95
2023/10/06 05:17:27;;;;;;;;;;;14.20;99.90;;;;;;4992974;28;20262;-96
2023/10/06 05:19:54;;;;;;;;;;;13.50;99.90;;;;;;4986699;28;19947;-94
2023/10/06 05:22:23;;;;;;;;;;;14.20;99.90;;;;;;4992972;28;20345;-95
2023/10/06 05:24:52;;;;;;;;;;;14.30;99.90;;;;;;5009145;28;19959;-96
2023/10/06 05:27:22;;;;;;;;;;;14.70;99.90;;;;;;4994549;28;19943;-94
2023/10/06 05:29:51;;;;;;;;;;;14.20;99.90;;;;;;4992251;28;20011;-95
2023/10/06 05:32:17;;;;;;;;;;;14.20;99.90;;;;;;4975138;28;19917;-95
2023/10/06 05:34:46;;;;;;;;;;;14.20;99.90;;;;;;4981362;28;20285;-95
2023/10/06 05:37:21;;;;;;;;;;;14.10;99.90;;;;;;4988464;28;19921;-96
2023/10/06 05:39:49;;;;;;;;;;;14.10;99.90;;;;;;4976963;28;20407;-95
2023/10/06 05:42:17;;;;;;;;;;;14.10;99.90;;;;;;4992873;28;20008;-96
2023/10/06 05:44:53;;;;;;;;;;;14.10;99.90;;;;;;4977129;28;19924;-95
2023/10/06 05:47:19;;;;;;;;;;;14.10;99.90;;;;;;4995447;28;19932;-94
2023/10/06 05:49:47;;;;;;;;;;;14.00;99.90;;;;;;4988361;28;19922;-96
2023/10/06 05:52:13;;;;;;;;;;;14.30;99.90;;;;;;4991686;28;19917;-94
2023/10/06 05:54:39;;;;;;;;;;;14.00;99.90;;;;;;4979379;28;19932;-93
2023/10/06 05:57:07;;;;;;;;;;;14.00;99.90;;;;;;4982077;28;20288;-94
2023/10/06 05:59:36;;;;;;;;;;;14.00;99.90;;;;;;4967428;28;19924;-92
2023/10/06 06:02:04;;;;;;;;;;;14.00;99.90;;;;;;4977381;28;19917;-92
2023/10/06 06:04:30;;;;;;;;;;;14.00;99.90;;;;;;4985121;28;20016;-95
2023/10/06 06:06:57;;;;;;;;;;;14.00;99.90;;;;;;4990624;28;19935;-93
2023/10/06 06:09:25;;;;;;;;;;;14.00;99.90;;;;;;4981620;28;19927;-93
2023/10/06 06:11:54;;;;;;;;;;;14.00;99.90;;;;;;4997087;28;19955;-96
2023/10/06 06:14:21;;;;;;;;;;;14.00;99.90;;;;;;4996435;28;19978;-94
2023/10/06 06:16:47;;;;;;;;;;;14.10;99.90;;;;;;4997963;28;19924;-94
2023/10/06 06:19:13;;;;;;;;;;;14.00;99.90;;;;;;4987733;28;19917;-95
2023/10/06 06:21:39;;;;;;;;;;;14.10;99.90;;;;;;4999220;28;19925;-95
2023/10/06 06:24:08;;;;;;;;;;;14.10;99.90;;;;;;4998934;28;19924;-94
2023/10/06 06:26:37;;;;;;;;;;;14.10;99.90;;;;;;4998585;28;19929;-94
2023/10/06 06:29:08;;;;;;;;;;;14.10;99.90;;;;;;4996360;28;19921;-95
2023/10/06 06:31:34;;;;;;;;;;;13.50;99.90;;;;;;4996375;28;19970;-94
2023/10/06 06:34:00;;;;;;;;;;;14.20;99.90;;;;;;4995600;28;19925;-95
2023/10/06 06:36:31;;;;;;;;;;;13.60;99.90;;;;;;4999677;28;19978;-95
2023/10/06 06:39:00;;;;;;;;;;;13.80;99.90;;;;;;4996200;28;19917;-96
2023/10/06 06:41:26;;;;;;;;;;;14.20;99.90;;;;;;4997102;28;19920;-94
2023/10/06 06:43:58;;;;;;;;;;;14.20;99.90;;;;;;4998464;28;20002;-95
2023/10/06 06:46:24;;;;;;;;;;;14.30;99.90;;;;;;4998534;28;19972;-94
2023/10/06 06:48:50;;;;;;;;;;;14.30;99.90;;;;;;4999583;28;19921;-94
2023/10/06 06:51:15;;;;;;;;;;;14.30;99.90;;;;;;4978008;28;20440;-94
2023/10/06 06:53:41;;;;;;;;;;;14.00;99.90;;;;;;4997403;28;20028;-94
2023/10/06 06:56:10;;;;;;;;;;;14.30;99.90;;;;;;4999503;28;20011;-93
2023/10/06 06:58:39;;;;;;;;;;;14.30;99.90;;;;;;4974120;28;20361;-94
2023/10/06 07:01:06;;;;;;;;;;;14.40;99.90;;;;;;4997501;28;19987;-95
2023/10/06 07:03:32;;;;;;;;;;;14.40;99.90;;;;;;4998966;28;19923;-95
2023/10/06 07:05:58;;;;;;;;;;;14.40;99.90;;;;;;4997164;28;19917;-93
2023/10/06 07:08:24;;;;;;;;;;;14.50;99.90;;;;;;4992860;28;19925;-94
2023/10/06 07:10:52;;;;;;;;;;;14.40;99.90;;;;;;4998226;28;19929;-94
2023/10/06 07:13:22;;;;;;;;;;;14.80;99.90;;;;;;4981213;28;19917;-93
2023/10/06 07:15:49;;;;;;;;;;;14.30;99.90;;;;;;4994210;28;19917;-94
2023/10/06 07:18:15;;;;;;;;;;;14.70;99.90;;;;;;5010611;28;19975;-94
2023/10/06 07:20:40;;;;;;;;;;;14.70;99.90;;;;;;5000388;28;19921;-93
2023/10/06 07:23:06;;;;;;;;;;;14.80;99.90;;;;;;4993755;28;20411;-94
2023/10/06 07:25:32;;;;;;;;;;;14.10;99.90;;;;;;4978705;28;19917;-94
2023/10/06 07:27:58;;;;;;;;;;;14.80;99.90;;;;;;4995514;28;19917;-94
2023/10/06 07:30:25;;;;;;;;;;;14.80;99.90;;;;;;4983649;28;19925;-95
2023/10/06 07:32:52;;;;;;;;;;;14.80;99.90;;;;;;4993605;28;20438;-94
2023/10/06 07:35:19;;;;;;;;;;;14.70;99.90;;;;;;4995096;28;19925;-95
2023/10/06 07:37:45;;;;;;;;;;;14.80;99.90;;;;;;4993268;28;19963;-95
2023/10/06 07:40:15;;;;;;;;;;;14.80;99.90;;;;;;4997657;28;19959;-93
2023/10/06 07:42:50;;;;;;;;;;;14.40;99.90;;;;;;5015022;28;19925;-94
2023/10/06 07:45:17;;;;;;;;;;;14.90;99.90;;;;;;4994629;28;19918;-95
2023/10/06 07:47:43;;;;;;;;;;;14.90;99.90;;;;;;4998852;28;20123;-95
2023/10/06 07:50:15;;;;;;;;;;;14.90;99.90;;;;;;4994612;28;19925;-94
2023/10/06 07:52:42;;;;;;;;;;;14.90;99.90;;;;;;4975507;28;19925;-94
2023/10/06 07:55:11;;;;;;;;;;;14.90;99.90;;;;;;4989627;28;19924;-94
2023/10/06 07:57:44;;;;;;;;;;;14.90;99.90;;;;;;4973363;28;19967;-94
2023/10/06 08:00:12;;;;;;;;;;;14.90;99.90;;;;;;4996997;28;19924;-94
2023/10/06 08:02:41;;;;;;;;;;;14.90;99.90;;;;;;4991991;28;19936;-94
2023/10/06 08:05:08;;;;;;;;;;;14.90;99.90;;;;;;4993210;28;19950;-95
2023/10/06 08:07:33;;;;;;;;;;;14.90;99.90;;;;;;4980411;28;19917;-95
2023/10/06 08:09:59;;;;;;;;;;;14.90;99.90;;;;;;5000348;28;19963;-94
2023/10/06 08:12:27;;;;;;;;;;;15.00;99.90;;;;;;4994568;28;19917;-94
2023/10/06 08:14:54;;;;;;;;;;;15.00;99.90;;;;;;4993879;28;19952;-95
2023/10/06 08:17:20;;;;;;;;;;;15.00;99.90;;;;;;5003047;28;19920;-94
2023/10/06 08:19:46;;;;;;;;;;;15.00;99.90;;;;;;4995106;28;19923;-93
2023/10/06 08:22:12;;;;;;;;;;;15.10;99.90;;;;;;5000822;28;19939;-95
2023/10/06 08:24:38;;;;;;;;;;;14.50;99.90;;;;;;4983078;28;19917;-93
2023/10/06 08:27:06;;;;;;;;;;;15.20;99.90;;;;;;4977331;28;19921;-95
2023/10/06 08:29:33;;;;;;;;;;;15.20;99.90;;;;;;5007723;28;19921;-95
2023/10/06 08:31:59;;;;;;;;;;;15.20;99.90;;;;;;5003959;28;19921;-94
2023/10/06 08:34:25;;;;;;;;;;;15.50;99.90;;;;;;4996033;28;20312;-95
2023/10/06 08:36:51;;;;;;;;;;;15.30;99.90;;;;;;4995434;28;20331;-95
2023/10/06 08:43:02;;;;;;;;;;;15.40;99.90;;;;;;4971912;28;20436;-95
2023/10/06 08:45:28;;;;;;;;;;;15.00;99.90;;;;;;4992881;28;19927;-95
2023/10/06 08:48:01;;;;;;;;;;;15.60;99.90;;;;;;4984985;28;20288;-92
2023/10/06 08:50:32;;;;;;;;;;;15.60;99.90;;;;;;4989270;28;19921;-95
2023/10/06 08:52:59;;;;;;;;;;;15.70;99.90;;;;;;4995323;28;19917;-94
2023/10/06 08:55:25;;;;;;;;;;;15.80;99.90;;;;;;4996264;28;19917;-91
2023/10/06 08:57:52;;;;;;;;;;;15.80;99.90;;;;;;4992078;28;19920;-95
2023/10/06 09:00:19;;;;;;;;;;;15.80;99.90;;;;;;5000803;28;19924;-95
2023/10/06 09:02:46;;;;;;;;;;;15.80;99.90;;;;;;5001469;28;19964;-95
2023/10/06 09:05:52;;;;;;;;;;;15.40;99.90;;;;;;4997796;28;20430;-94
2023/10/06 09:08:18;;;;;;;;;;;15.60;99.90;;;;;;5010517;28;19924;-94
2023/10/06 09:10:51;;;;;;;;;;;15.90;99.90;;;;;;4993494;28;19933;-95
2023/10/06 09:13:20;;;;;;;;;;;16.00;99.90;;;;;;4992895;28;19967;-95
2023/10/06 09:15:57;;;;;;;;;;;16.10;99.90;;;;;;4990334;28;20218;-96
2023/10/06 09:18:31;;;;;;;;;;;16.20;99.90;;;;;;4994248;28;19921;-95
2023/10/06 09:21:10;;;;;;;;;;;16.30;99.90;;;;;;4998865;28;19921;-96
2023/10/06 09:23:42;;;;;;;;;;;16.40;99.90;;;;;;4997548;28;19917;-94
2023/10/06 09:26:11;;;;;;;;;;;16.50;99.90;;;;;;4981838;28;19917;-95
2023/10/06 09:28:52;;;;;;;;;;;16.50;99.90;;;;;;4988834;28;20403;-95
2023/10/06 09:31:33;;;;;;;;;;;16.60;99.90;;;;;;4986506;28;19928;-94
2023/10/06 09:33:59;;;;;;;;;;;16.60;99.90;;;;;;4994597;28;19921;-94
2023/10/06 09:36:25;;;;;;;;;;;;;;;;;;4974471;28;19922;-95
2023/10/06 09:38:58;;;;;;;;;;;16.80;99.90;;;;;;4990079;28;19925;-95
2023/10/06 09:41:25;;;;;;;;;;;16.80;99.90;;;;;;4990151;28;19921;-95
2023/10/06 09:43:52;;;;;;;;;;;16.90;99.90;;;;;;4974949;28;19957;-95
2023/10/06 09:46:18;;;;;;;;;;;16.90;99.90;;;;;;4991829;28;19964;-94
2023/10/06 09:48:46;;;;;;;;;;;17.10;99.90;;;;;;4996153;28;20419;-95
2023/10/06 09:51:12;;;;;;;;;;;17.20;99.90;;;;;;4998520;28;19922;-95
2023/10/06 09:53:39;;;;;;;;;;;17.30;99.90;;;;;;4994533;28;19924;-94
2023/10/06 09:56:07;;;;;;;;;;;18.10;99.90;;;;;;4971608;28;20341;-95
2023/10/06 09:58:35;;;;;;;;;;;17.30;99.90;;;;;;4992604;28;19925;-94
2023/10/06 10:01:01;;;;;;;;;;;17.30;99.90;;;;;;4994965;28;20342;-95
2023/10/06 10:03:27;;;;;;;;;;;17.40;99.90;;;;;;4995051;28;19917;-94
2023/10/06 10:05:53;;;;;;;;;;;17.50;99.90;;;;;;4978463;28;19924;-95
2023/10/06 10:08:22;;;;;;;;;;;17.60;99.90;;;;;;4991899;28;19921;-95
2023/10/06 10:10:52;;;;;;;;;;;17.70;99.90;;;;;;4999453;28;20277;-95
2023/10/06 10:13:26;;;;;;;;;;;17.70;99.90;;;;;;4987172;28;20324;-94
2023/10/06 10:16:11;;;;;;;;;;;17.70;99.90;;;;;;4988184;28;19917;-95
2023/10/06 10:18:38;;;;;;;;;;;17.70;99.90;;;;;;4992653;28;20005;-96
2023/10/06 10:21:08;;;;;;;;;;;17.90;99.90;;;;;;4996344;28;19921;-96
2023/10/06 10:23:37;;;;;;;;;;;17.90;99.90;;;;;;4996190;28;20285;-95
2023/10/06 10:26:20;;;;;;;;;;;18.00;99.90;;;;;;4989151;28;19917;-95
2023/10/06 10:29:05;;;;;;;;;;;18.10;99.90;;;;;;4982539;28;20438;-96
2023/10/06 10:31:37;;;;;;;;;;;18.20;99.90;;;;;;4997967;28;19930;-94
2023/10/06 10:34:03;;;;;;;;;;;18.20;99.90;;;;;;4992769;28;19953;-93
2023/10/06 10:36:29;;;;;;;;;;;18.20;99.90;;;;;;4981607;28;20381;-96
2023/10/06 10:39:03;;;;;;;;;;;18.30;99.90;;;;;;4996381;28;20327;-95
2023/10/06 10:41:38;;;;;;;;;;;18.30;99.90;;;;;;4992082;28;19916;-95
2023/10/06 10:44:07;;;;;;;;;;;18.30;99.90;;;;;;4987831;28;19921;-96
2023/10/06 10:46:50;;;;;;;;;;;18.30;99.90;;;;;;4997047;28;19924;-96
2023/10/06 10:49:20;;;;;;;;;;;18.20;99.90;;;;;;4987371;28;20012;-95
2023/10/06 10:51:57;;;;;;;;;;;18.20;99.90;;;;;;4993534;28;19921;-95
2023/10/06 10:54:26;;;;;;;;;;;18.20;99.90;;;;;;4996723;28;19924;-95
2023/10/06 10:56:53;;;;;;;;;;;18.30;99.90;;;;;;4998590;28;19944;-95
2023/10/06 10:59:22;;;;;;;;;;;18.60;99.90;;;;;;4993785;28;19924;-95
2023/10/06 11:01:52;;;;;;;;;;;18.30;99.90;;;;;;4992122;28;19924;-95
2023/10/06 11:04:35;;;;;;;;;;;18.30;99.90;;;;;;4985051;28;19924;-94
2023/10/06 11:07:11;;;;;;;;;;;18.50;99.90;;;;;;5001328;28;19975;-94
2023/10/06 11:09:41;;;;;;;;;;;18.50;99.90;;;;;;4995496;28;19921;-94
2023/10/06 11:12:28;;;;;;;;;;;18.60;99.90;;;;;;4999291;28;19917;-94
2023/10/06 11:15:02;;;;;;;;;;;18.70;99.90;;;;;;4988263;28;19964;-92
2023/10/06 11:17:29;;;;;;;;;;;18.80;99.90;;;;;;4999518;28;19925;-94
2023/10/06 11:20:08;;;;;;;;;;;18.90;99.90;;;;;;4980888;28;19925;-95
2023/10/06 11:22:34;;;;;;;;;;;18.90;99.90;;;;;;4996983;28;19928;-94
2023/10/06 11:25:03;;;;;;;;;;;19.00;99.90;;;;;;4988579;28;19921;-96
2023/10/06 11:27:31;;;;;;;;;;;19.10;99.90;;;;;;4982040;28;20281;-95
2023/10/06 11:29:57;;;;;;;;;;;19.10;99.90;;;;;;4996456;28;19964;-96
2023/10/06 11:32:23;;;;;;;;;;;19.10;99.90;;;;;;4997614;28;20015;-94
2023/10/06 11:34:52;;;;;;;;;;;19.20;99.90;;;;;;4980072;28;19948;-96
2023/10/06 11:37:24;;;;;;;;;;;19.20;99.90;;;;;;4971224;28;20395;-93
2023/10/06 11:39:52;;;;;;;;;;;19.30;99.90;;;;;;4990189;28;20012;-95
2023/10/06 11:42:24;;;;;;;;;;;19.30;99.90;;;;;;4995606;28;19921;-94
2023/10/06 11:44:54;;;;;;;;;;;19.40;99.90;;;;;;4997131;28;19921;-94
2023/10/06 11:47:22;;;;;;;;;;;19.40;99.90;;;;;;4993634;28;19947;-95
2023/10/06 11:50:04;;;;;;;;;;;19.50;99.90;;;;;;4988405;28;19969;-95
2023/10/06 11:52:29;;;;;;;;;;;19.40;99.90;;;;;;4975370;28;19925;-91
2023/10/06 11:54:57;;;;;;;;;;;19.50;99.90;;;;;;4986609;28;19933;-94
2023/10/06 11:57:41;;;;;;;;;;;19.50;99.90;;;;;;4994221;28;19918;-94
2023/10/06 12:00:12;;;;;;;;;;;19.50;99.90;;;;;;4989769;28;19917;-94
2023/10/06 12:03:04;;;;;;;;;;;19.90;99.90;;;;;;4981771;28;19940;-94
2023/10/06 12:05:30;;;;;;;;;;;19.50;99.90;;;;;;4988610;28;19925;-94
2023/10/06 12:08:08;;;;;;;;;;;19.50;99.90;;;;;;4992646;28;19933;-94
2023/10/06 12:10:45;;;;;;;;;;;19.50;99.90;;;;;;4990776;28;19983;-94
2023/10/06 12:13:12;;;;;;;;;;;19.30;99.90;;;;;;4991583;28;19922;-93
2023/10/06 12:15:38;;;;;;;;;;;19.50;99.90;;;;;;4981698;28;19944;-94
2023/10/06 12:18:04;;;;;;;;;;;19.60;99.90;;;;;;4974174;28;19928;-93
2023/10/06 12:20:30;;;;;;;;;;;19.70;99.90;;;;;;4991256;28;19936;-93
2023/10/06 12:22:55;;;;;;;;;;;19.70;99.90;;;;;;4992334;28;19921;-94
2023/10/06 12:25:25;;;;;;;;;;;19.70;99.90;;;;;;4989960;28;19917;-93
2023/10/06 12:27:51;;;;;;;;;;;19.70;99.90;;;;;;4988190;28;20021;-94
2023/10/06 12:30:20;;;;;;;;;;;19.80;99.90;;;;;;4974999;28;20016;-94
2023/10/06 12:32:46;;;;;;;;;;;19.70;99.90;;;;;;4992226;28;19970;-91
2023/10/06 12:35:11;;;;;;;;;;;19.80;99.90;;;;;;4975259;28;20372;-94
2023/10/06 12:37:41;;;;;;;;;;;19.80;99.90;;;;;;4964085;28;19926;-95
2023/10/06 12:40:11;;;;;;;;;;;19.70;99.90;;;;;;4975697;28;19917;-96
2023/10/06 12:42:38;;;;;;;;;;;19.70;99.90;;;;;;4952747;28;20297;-94
2023/10/06 12:45:08;;;;;;;;;;;19.70;99.90;;;;;;4969780;28;20329;-95
2023/10/06 12:47:34;;;;;;;;;;;19.60;99.90;;;;;;4984140;28;19917;-96
2023/10/06 12:50:05;;;;;;;;;;;19.60;99.90;;;;;;4964404;28;19925;-95
2023/10/06 12:52:37;;;;;;;;;;;19.60;99.90;;;;;;4970652;28;19917;-95
2023/10/06 12:55:10;;;;;;;;;;;19.40;99.90;;;;;;5005776;28;19918;-95
2023/10/06 12:57:38;;;;;;;;;;;19.40;99.90;;;;;;4977426;28;19917;-93
2023/10/06 13:00:08;;;;;;;;;;;19.50;99.90;;;;;;4973081;28;20084;-94
2023/10/06 13:02:35;;;;;;;;;;;19.30;99.90;;;;;;4977656;28;19928;-95
2023/10/06 13:05:13;;;;;;;;;;;19.30;99.90;;;;;;4974655;28;19921;-96
2023/10/06 13:07:43;;;;;;;;;;;19.30;99.90;;;;;;4967493;28;19921;-96
2023/10/06 13:10:09;;;;;;;;;;;19.20;99.90;;;;;;4980120;28;19976;-95
2023/10/06 13:12:41;;;;;;;;;;;19.20;99.90;;;;;;4988009;28;19924;-95
2023/10/06 13:15:08;;;;;;;;;;;19.10;99.90;;;;;;4975679;28;19917;-93
2023/10/06 13:17:34;;;;;;;;;;;19.10;99.90;;;;;;4971745;28;19969;-95
2023/10/06 13:20:01;;;;;;;;;;;19.00;99.90;;;;;;4975525;28;20346;-92
2023/10/06 13:22:29;;;;;;;;;;;19.00;99.90;;;;;;4985705;28;20007;-94
2023/10/06 13:24:54;;;;;;;;;;;18.90;99.90;;;;;;4978800;28;20284;-95
2023/10/06 13:27:23;;;;;;;;;;;18.90;99.90;;;;;;4969585;28;20277;-91
2023/10/06 13:29:53;;;;;;;;;;;18.90;99.90;;;;;;4987114;28;20372;-92
2023/10/06 13:32:18;;;;;;;;;;;18.80;99.90;;;;;;4981259;28;19971;-90
2023/10/06 13:34:47;;;;;;;;;;;19.00;99.90;;;;;;4977451;28;19969;-95
2023/10/06 13:37:16;;;;;;;;;;;18.60;99.90;;;;;;4992973;28;20250;-96
2023/10/06 13:39:48;;;;;;;;;;;18.90;99.90;;;;;;4996915;28;19983;-94
2023/10/06 13:42:23;;;;;;;;;;;19.10;99.90;;;;;;4993960;28;19972;-95
2023/10/06 13:44:52;;;;;;;;;;;19.10;99.90;;;;;;4978321;28;19917;-96
2023/10/06 13:47:21;;;;;;;;;;;19.10;99.90;;;;;;4976275;28;20000;-94
2023/10/06 13:49:54;;;;;;;;;;;18.70;99.90;;;;;;4991078;28;19925;-94
2023/10/06 13:52:22;;;;;;;;;;;19.00;99.90;;;;;;4991541;28;19968;-94
2023/10/06 13:54:50;;;;;;;;;;;19.00;99.90;;;;;;4997755;28;19917;-95
2023/10/06 13:57:16;;;;;;;;;;;18.90;99.90;;;;;;4997341;28;19997;-95
2023/10/06 13:59:44;;;;;;;;;;;18.90;99.90;;;;;;5002366;28;19937;-94
2023/10/06 14:02:12;;;;;;;;;;;18.80;99.90;;;;;;4995513;28;20357;-94
2023/10/06 14:04:39;;;;;;;;;;;18.80;99.90;;;;;;4994803;28;19917;-93
2023/10/06 14:07:11;;;;;;;;;;;18.70;99.90;;;;;;4995487;28;19917;-94
2023/10/06 14:09:37;;;;;;;;;;;18.90;99.90;;;;;;5002586;28;20441;-96
2023/10/06 14:12:13;;;;;;;;;;;18.60;99.90;;;;;;4994303;28;20331;-94
2023/10/06 14:17:29;;;;;;;;;;;18.60;99.90;;;;;;4991894;28;20440;-95
2023/10/06 14:20:25;;;;;;;;;;;18.60;99.90;;;;;;4993604;28;20365;-96
2023/10/06 14:47:46;;;;;;;;;;;18.40;99.90;;;;;;4860603;28;20342;-91
2023/10/06 14:50:13;;;;;;;;;;;18.50;99.90;;;;;;4959307;28;20369;-89
2023/10/06 14:52:40;;;;;;;;;;;18.50;99.90;;;;;;4989932;28;20027;-91
2023/10/06 14:55:09;;;;;;;;;;;18.40;99.90;;;;;;4986171;28;19920;-91
2023/10/06 14:57:37;;;;;;;;;;;18.40;99.90;;;;;;4970527;28;19944;-92
2023/10/06 15:00:05;;;;;;;;;;;18.40;99.90;;;;;;4990571;28;19916;-93
2023/10/06 15:02:32;;;;;;;;;;;18.40;99.90;;;;;;4981746;28;19975;-92
2023/10/06 15:04:58;;;;;;;;;;;18.40;99.90;;;;;;4989431;28;19921;-92
2023/10/06 15:07:27;;;;;;;;;;;18.40;99.90;;;;;;4993142;28;19996;-91
2023/10/06 15:09:52;;;;;;;;;;;18.40;99.90;;;;;;4990493;28;19999;-91
2023/10/06 15:12:18;;;;;;;;;;;18.40;99.90;;;;;;4995199;28;20342;-93
2023/10/06 15:14:44;;;;;;;;;;;18.30;99.90;;;;;;4986214;28;19969;-92
2023/10/06 15:17:11;;;;;;;;;;;18.30;99.90;;;;;;4974173;28;19976;-92